Have a Safe July 4th! 

Flight Track Log - Related Links

Times and Time Zones

All times are in EST time to prevent confusion due to time zone crossing. See the N6036Y flight status page for this flight to view local times or setup timezone preferences in your user account.

Time Position Orientation Groundspeed Altitude Reporting Facility
EST Latitude Longitude Course Direction KTS MPH feet Rate Location/Type
Sun 06:33:01 PM 29.8031 -82.1889 116° Southeast 91 105 8,500  Level Jacksonville Center
Sun 06:34:01 PM 29.8117 -82.2200 288° West 91 105 8,500  Level Jacksonville Center
Sun 06:35:01 PM 29.8203 -82.2486 289° West 91 105 8,500  Level Jacksonville Center
Sun 06:36:01 PM 29.8267 -82.2797 283° West 96 110 8,500  Level Jacksonville Center
Sun 06:37:01 PM 29.8350 -82.3108 287° West 101 116 8,500  Level Jacksonville Center
Sun 06:38:00 PM -19.3811 -161.3513 116° Southeast  Level Estimated
Sun 06:38:01 PM 29.8436 -82.3369 291° West 101 116 8,500  Level Jacksonville Center
Sun 06:39:01 PM 29.8542 -82.3681 291° West 101 116 8,500  Level Jacksonville Center
Sun 06:40:01 PM 29.8625 -82.3992 287° West 101 116 8,500  Level Jacksonville Center
Sun 06:41:01 PM 29.8711 -82.4278 289° West 106 122 8,500  Level Jacksonville Center
Sun 06:42:01 PM 29.8794 -82.4589 287° West 106 122 8,500  Level Jacksonville Center
Sun 06:43:01 PM 29.8881 -82.4878 289° West 106 122 8,500  Level Jacksonville Center
Sun 06:44:01 PM 29.8964 -82.5211 286° West 106 122 8,500  Level Jacksonville Center
Sun 06:45:01 PM 29.9050 -82.5500 289° West 106 122 8,500  Level Jacksonville Center
Sun 06:46:01 PM 29.9133 -82.5811 287° West 106 122 8,500  Level Jacksonville Center
Sun 06:47:01 PM 29.9217 -82.6097 289° West 106 122 8,500  Level Jacksonville Center
Sun 06:48:01 PM 29.9300 -82.6408 287° West 106 122 8,500  Level Jacksonville Center
Sun 06:49:01 PM 29.9386 -82.6697 289° West 106 122 8,500  Level Jacksonville Center
Sun 06:50:01 PM 29.9469 -82.7008 287° West 102 117 8,500  Level Jacksonville Center
Sun 06:51:01 PM 29.9553 -82.7294 289° West 102 117 8,500  Level Jacksonville Center
Sun 06:52:01 PM 29.9636 -82.7606 287° West 102 117 8,500  Level Jacksonville Center
Sun 06:53:01 PM 29.9722 -82.7894 289° West 102 117 8,500  Level Jacksonville Center
Sun 06:54:01 PM 29.9806 -82.8183 288° West 102 117 8,500  Level Jacksonville Center
Sun 06:55:01 PM 29.9889 -82.8494 287° West 104 120 8,500  Level Jacksonville Center
Sun 06:56:01 PM 29.9972 -82.8806 287° West 104 120 8,500  Level Jacksonville Center
Sun 06:57:01 PM 30.0075 -82.9094 292° West 104 120 8,500  Level Jacksonville Center
Sun 06:58:01 PM 30.0139 -82.9406 283° West 104 120 8,500 -50 Level Jacksonville Center
Sun 06:59:01 PM 30.0222 -82.9694 288° West 104 120 8,400 -50 Descending Jacksonville Center
Sun 07:00:01 PM 30.0306 -82.9981 289° West 104 120 8,400  Level Jacksonville Center
Sun 07:01:01 PM 30.0389 -83.0294 287° West 104 120 8,400  Level Jacksonville Center
Sun 07:02:01 PM 30.0472 -83.0581 289° West 104 120 8,400  Level Jacksonville Center
Sun 07:03:01 PM 30.0556 -83.0869 288° West 104 120 8,400  Level Jacksonville Center
Sun 07:04:01 PM 30.0639 -83.1158 288° West 104 120 8,400  Level Jacksonville Center
Sun 07:05:01 PM 30.0722 -83.1469 287° West 104 120 8,400  Level Jacksonville Center
Sun 07:06:01 PM 30.0783 -83.1758 284° West 104 120 8,400  Level Jacksonville Center
Sun 07:07:01 PM 30.0867 -83.2069 287° West 104 120 8,400  Level Jacksonville Center
Sun 07:08:01 PM 30.0947 -83.2358 288° West 104 120 8,400  Level Jacksonville Center
Sun 07:09:01 PM 30.1031 -83.2622 290° West 104 120 8,400  Level Jacksonville Center
Sun 07:10:01 PM 30.1114 -83.2911 288° West 104 120 8,400  Level Jacksonville Center
Sun 07:11:01 PM 30.1197 -83.3200 288° West 104 120 8,400  Level Jacksonville Center
Sun 07:12:01 PM 30.1278 -83.3514 287° West 104 120 8,400 -150 Level Jacksonville Center
Sun 07:13:01 PM 30.1342 -83.3800 284° West 104 120 8,100 -350 Descending Jacksonville Center
Sun 07:14:01 PM 30.1422 -83.4089 288° West 104 120 7,700 -450 Descending Jacksonville Center
Sun 07:15:01 PM 30.1525 -83.4403 291° West 104 120 7,200 -500 Descending Jacksonville Center
Sun 07:16:01 PM 30.1586 -83.4714 283° West 104 120 6,700 -500 Descending Jacksonville Center
Sun 07:17:01 PM 30.1689 -83.5053 289° West 104 120 6,200 -550 Descending Jacksonville Center
Sun 07:18:01 PM 30.1792 -83.5389 289° West 104 120 5,600 -550 Descending Jacksonville Center
Sun 07:19:01 PM 30.1875 -83.5703 287° West 104 120 5,100 -500 Descending Jacksonville Center
Sun 07:21:00 PM 30.2015 -83.6389 287° West  Level FlightAware Approximate
Sun 07:28:00 PM 30.2634 -83.8778 287° West  Level FlightAware Approximate
Sun 07:29:00 PM 30.2722 -83.9119 287° West  Level FlightAware Approximate
Sun 07:30:00 PM 30.2810 -83.9461 287° West  Level FlightAware Approximate
Sun 07:31:00 PM 30.2898 -83.9802 287° West  Level FlightAware Approximate
Sun 07:32:00 PM 30.2986 -84.0144 287° West  Level FlightAware Approximate
Sun 07:33:00 PM 30.3073 -84.0486 287° West  Level FlightAware Approximate
Sun 07:34:00 PM 30.3161 -84.0827 287° West  Level FlightAware Approximate
Sun 07:35:00 PM 30.3249 -84.1169 287° West  Level FlightAware Approximate
Sun 07:36:00 PM 30.3337 -84.1511 291° West  Level FlightAware Approximate
Sun 07:37:00 PM 30.3448 -84.1843 291° West  Level FlightAware Approximate
Sun 07:38:00 PM 30.3559 -84.2176 291° West  Level FlightAware Approximate
Sun 07:39:00 PM 30.3668 -84.2509 281° West  Level FlightAware Approximate
Sun 07:40:00 PM 30.3727 -84.2860 281° West  Level FlightAware Approximate
Sun 07:41:00 PM 30.3785 -84.3210 281° West  Level FlightAware Approximate
Sun 07:42:00 PM 30.3833 -84.3500 281° West  Level FlightAware Approximate
Sun 07:43:00 PM 30.3967 -84.3509 281° West  Level Estimated
Sun 07:44:00 PM 30.3967 -84.3509 281° West  Level Estimated
Sun 07:45:00 PM 30.3967 -84.3509 281° West  Level Estimated
Sun 07:46:00 PM 30.3967 -84.3509 281° West  Level Estimated
Sun 07:47:00 PM 30.3967 -84.3509 281° West  Level Estimated
Sun 07:48:00 PM 30.3967 -84.3509 281° West  Level Estimated
Sun 07:49:00 PM 30.3967 -84.3509 281° West  Level Estimated
Sun 07:50:00 PM 30.3967 -84.3509 281° West  Level Estimated
Sun 07:51:00 PM 30.3967 -84.3509 281° West  Level Estimated
Sun 07:52:00 PM 30.3967 -84.3509 281° West  Level Estimated
Sun 07:53:00 PM 30.3967 -84.3509 281° West  Level Estimated
Sun 07:54:00 PM 30.3967 -84.3509 281° West  Level Estimated

Login

Don't have an account? Register now (free) for customized features, flight alerts, and more!